Observation data for Floydada on 08/10/2018      Previous  Date       Current Mesonet Observations  Soil Data  Daily Summary Page  Observations in Plain Language
KFLS 100500Z 18007KT 21/16 A3015 RMK A01 T02100155  RH  073%=      5-min Rain = 0
KFLS 100505Z 20006KT 21/16 A3015 RMK A01 T02080156  RH  073%=      5-min Rain = 0
KFLS 100510Z 19006KT 21/16 A3016 RMK A01 T02060157  RH  075%=      5-min Rain = 0
KFLS 100515Z 20005KT 20/16 A3016 RMK A01 T02040159  RH  077%=      5-min Rain = 0
KFLS 100520Z 21006KT 21/16 A3016 RMK A01 T02060158  RH  076%=      5-min Rain = 0
KFLS 100525Z 20005KT 21/16 A3016 RMK A01 T02080159  RH  075%=      5-min Rain = 0
KFLS 100530Z 19006KT 21/16 A3015 RMK A01 T02070161  RH  076%=      5-min Rain = 0
KFLS 100535Z 19007KT 21/16 A3015 RMK A01 T02090162  RH  076%=      5-min Rain = 0
KFLS 100540Z 19007KT 21/16 A3016 RMK A01 T02100163  RH  076%=      5-min Rain = 0
KFLS 100545Z 18007KT 21/16 A3016 RMK A01 T02090162  RH  076%=      5-min Rain = 0
KFLS 100550Z 18007KT 21/16 A3015 RMK A01 T02120160  RH  074%=      5-min Rain = 0
KFLS 100555Z 18006KT 21/16 A3016 RMK A01 T02110161  RH  075%=      5-min Rain = 0
KFLS 100600Z 19006KT 21/16 A3016 RMK A01 T02110159  RH  074%=      5-min Rain = 0
KFLS 100605Z 19007KT 21/16 A3015 RMK A01 T02120157  RH  072%=      5-min Rain = 0
KFLS 100610Z 19006KT 21/16 A3015 RMK A01 T02110157  RH  073%=      5-min Rain = 0
KFLS 100615Z 19005KT 21/16 A3015 RMK A01 T02100156  RH  072%=      5-min Rain = 0
KFLS 100620Z 20005KT 21/16 A3015 RMK A01 T02100156  RH  073%=      5-min Rain = 0
KFLS 100625Z 21005KT 21/15 A3015 RMK A01 T02120154  RH  071%=      5-min Rain = 0
KFLS 100630Z 21005KT 21/15 A3015 RMK A01 T02130153  RH  070%=      5-min Rain = 0
KFLS 100635Z 24005KT 21/16 A3015 RMK A01 T02120155  RH  071%=      5-min Rain = 0
KFLS 100640Z 24005KT 21/16 A3015 RMK A01 T02060159  RH  076%=      5-min Rain = 0
KFLS 100645Z 22004KT 20/16 A3015 RMK A01 T02030161  RH  078%=      5-min Rain = 0
KFLS 100650Z 23004KT 21/16 A3015 RMK A01 T02080160  RH  076%=      5-min Rain = 0
KFLS 100655Z 23003KT 21/16 A3015 RMK A01 T02070162  RH  077%=      5-min Rain = 0
KFLS 100700Z 23003KT 21/16 A3014 RMK A01 T02050164  RH  079%=      5-min Rain = 0
KFLS 100705Z 19003KT 21/17 A3014 RMK A01 T02060165  RH  079%=      5-min Rain = 0
KFLS 100710Z 24003KT 21/17 A3014 RMK A01 T02060167  RH  080%=      5-min Rain = 0
KFLS 100715Z 22003KT 21/17 A3014 RMK A01 T02060168  RH  081%=      5-min Rain = 0
KFLS 100720Z 22003KT 21/17 A3014 RMK A01 T02100168  RH  079%=      5-min Rain = 0
KFLS 100725Z 22003KT 21/17 A3014 RMK A01 T02130168  RH  077%=      5-min Rain = 0
KFLS 100730Z 23003KT 22/17 A3014 RMK A01 T02150168  RH  076%=      5-min Rain = 0
KFLS 100735Z 24003KT 21/17 A3014 RMK A01 T02140170  RH  078%=      5-min Rain = 0
KFLS 100740Z 25003KT 21/17 A3014 RMK A01 T02120173  RH  080%=      5-min Rain = 0
KFLS 100745Z 27003KT 21/18 A3014 RMK A01 T02110177  RH  083%=      5-min Rain = 0
KFLS 100750Z 26003KT 21/18 A3014 RMK A01 T02100178  RH  084%=      5-min Rain = 0
KFLS 100755Z 25003KT 21/18 A3013 RMK A01 T02090175  RH  083%=      5-min Rain = 0
KFLS 100800Z 23002KT 21/17 A3013 RMK A01 T02110173  RH  080%=      5-min Rain = 0
KFLS 100805Z 24002KT 21/17 A3013 RMK A01 T02120173  RH  080%=      5-min Rain = 0
KFLS 100810Z 26002KT 21/18 A3013 RMK A01 T02110176  RH  082%=      5-min Rain = 0
KFLS 100815Z 27002KT 21/18 A3012 RMK A01 T02100177  RH  083%=      5-min Rain = 0
KFLS 100820Z 29002KT 21/18 A3012 RMK A01 T02100177  RH  084%=      5-min Rain = 0
KFLS 100825Z 29002KT 21/18 A3012 RMK A01 T02100177  RH  083%=      5-min Rain = 0
KFLS 100830Z 31003KT 21/18 A3012 RMK A01 T02120179  RH  083%=      5-min Rain = 0
KFLS 100835Z 30004KT 21/18 A3012 RMK A01 T02120180  RH  084%=      5-min Rain = 0
KFLS 100840Z 30004KT 21/18 A3011 RMK A01 T02110182  RH  086%=      5-min Rain = 0
KFLS 100845Z 29002KT 21/18 A3011 RMK A01 T02100183  RH  087%=      5-min Rain = 0
KFLS 100850Z 11000KT 21/18 A3011 RMK A01 T02110183  RH  086%=      5-min Rain = 0
KFLS 100855Z 19000KT 21/18 A3012 RMK A01 T02110183  RH  087%=      5-min Rain = 0
KFLS 100900Z 16001KT 21/18 A3012 RMK A01 T02110184  RH  087%=      5-min Rain = 0
KFLS 100905Z 27000KT 21/19 A3012 RMK A01 T02110185  RH  087%=      5-min Rain = 0
KFLS 100910Z 26001KT 21/19 A3012 RMK A01 T02100185  RH  088%=      5-min Rain = 0
KFLS 100915Z 21002KT 21/19 A3012 RMK A01 T02100186  RH  088%=      5-min Rain = 0
KFLS 100920Z 23003KT 21/19 A3012 RMK A01 T02100185  RH  088%=      5-min Rain = 0
KFLS 100925Z 21003KT 21/18 A3012 RMK A01 T02110182  RH  086%=      5-min Rain = 0
KFLS 100930Z 21003KT 21/18 A3012 RMK A01 T02110183  RH  086%=      5-min Rain = 0
KFLS 100935Z 20004KT 21/18 A3012 RMK A01 T02110184  RH  086%=      5-min Rain = 0
KFLS 100940Z 19004KT 21/18 A3011 RMK A01 T02110183  RH  086%=      5-min Rain = 0
KFLS 100945Z 17003KT 21/18 A3011 RMK A01 T02130182  RH  085%=      5-min Rain = 0
KFLS 100950Z 15003KT 22/18 A3012 RMK A01 T02150179  RH  082%=      5-min Rain = 0
KFLS 100955Z 11003KT 22/18 A3012 RMK A01 T02150183  RH  084%=      5-min Rain = 0
KFLS 101000Z 13003KT 21/18 A3012 RMK A01 T02100182  RH  086%=      5-min Rain = 0
KFLS 101005Z 15004KT 21/18 A3012 RMK A01 T02110179  RH  084%=      5-min Rain = 0
KFLS 101010Z 17005KT 22/17 A3012 RMK A01 T02150174  RH  079%=      5-min Rain = 0
KFLS 101015Z 18005KT 22/17 A3012 RMK A01 T02180173  RH  077%=      5-min Rain = 0
KFLS 101020Z 18004KT 22/17 A3012 RMK A01 T02180174  RH  078%=      5-min Rain = 0
KFLS 101025Z 24003KT 22/17 A3012 RMK A01 T02180174  RH  078%=      5-min Rain = 0
KFLS 101030Z 23004KT 22/17 A3012 RMK A01 T02170174  RH  078%=      5-min Rain = 0
KFLS 101035Z 23004KT 22/18 A3012 RMK A01 T02190175  RH  078%=      5-min Rain = 0
KFLS 101040Z 21004KT 22/17 A3012 RMK A01 T02190174  RH  077%=      5-min Rain = 0
KFLS 101045Z 21005KT 22/17 A3012 RMK A01 T02180174  RH  078%=      5-min Rain = 0
KFLS 101050Z 21005KT 22/17 A3012 RMK A01 T02170174  RH  079%=      5-min Rain = 0
KFLS 101055Z 21004KT 22/17 A3012 RMK A01 T02170174  RH  078%=      5-min Rain = 0
KFLS 101100Z 21004KT 22/17 A3012 RMK A01 T02170174  RH  078%=      5-min Rain = 0
KFLS 101105Z 21005KT 22/17 A3012 RMK A01 T02160174  RH  079%=      5-min Rain = 0
KFLS 101110Z 20005KT 22/17 A3012 RMK A01 T02160174  RH  079%=      5-min Rain = 0
KFLS 101115Z 20006KT 22/17 A3012 RMK A01 T02170173  RH  078%=      5-min Rain = 0
KFLS 101120Z 19006KT 22/17 A3012 RMK A01 T02170173  RH  078%=      5-min Rain = 0
KFLS 101125Z 20005KT 22/17 A3013 RMK A01 T02170173  RH  078%=      5-min Rain = 0
KFLS 101130Z 22005KT 22/17 A3013 RMK A01 T02180173  RH  077%=      5-min Rain = 0
KFLS 101135Z 25006KT 22/17 A3013 RMK A01 T02190174  RH  077%=      5-min Rain = 0
KFLS 101140Z 27006KT 22/18 A3013 RMK A01 T02150176  RH  080%=      5-min Rain = 0
KFLS 101145Z 29005KT 21/18 A3013 RMK A01 T02080179  RH  086%=      5-min Rain = 0
KFLS 101150Z 30005KT 20/18 A3013 RMK A01 T02040180  RH  088%=      5-min Rain = 0
KFLS 101155Z 30005KT 20/18 A3013 RMK A01 T02010178  RH  089%=      5-min Rain = 0
KFLS 101200Z 31004KT 20/18 A3013 RMK A01 T01990177  RH  089%=      5-min Rain = 0
KFLS 101205Z 30004KT 20/18 A3013 RMK A01 T01970175  RH  089%=      5-min Rain = 0
KFLS 101210Z 29004KT 19/17 A3013 RMK A01 T01940174  RH  090%=      5-min Rain = 0
KFLS 101215Z 29004KT 19/17 A3013 RMK A01 T01930174  RH  091%=      5-min Rain = 0
KFLS 101220Z 29003KT 19/18 A3013 RMK A01 T01920175  RH  092%=      5-min Rain = 0
KFLS 101225Z 30004KT 19/18 A3014 RMK A01 T01920175  RH  092%=      5-min Rain = 0
KFLS 101230Z 30004KT 19/18 A3014 RMK A01 T01930176  RH  092%=      5-min Rain = 0
KFLS 101235Z 30004KT 19/18 A3014 RMK A01 T01920175  RH  092%=      5-min Rain = 0
KFLS 101240Z 30005KT 19/18 A3014 RMK A01 T01920176  RH  092%=      5-min Rain = 0
KFLS 101245Z 30004KT 19/18 A3014 RMK A01 T01930177  RH  093%=      5-min Rain = 0
KFLS 101250Z 29004KT 19/18 A3014 RMK A01 T01930178  RH  093%=      5-min Rain = 0
KFLS 101255Z 27004KT 20/18 A3013 RMK A01 T01960180  RH  093%=      5-min Rain = 0
KFLS 101300Z 27005KT 20/18 A3014 RMK A01 T02000183  RH  092%=      5-min Rain = 0
KFLS 101305Z 26005KT 20/18 A3013 RMK A01 T02030182  RH  090%=      5-min Rain = 0
KFLS 101310Z 28004KT 21/18 A3014 RMK A01 T02050182  RH  089%=      5-min Rain = 0
KFLS 101315Z 29004KT 21/18 A3014 RMK A01 T02080183  RH  088%=      5-min Rain = 0
KFLS 101320Z 28004KT 21/19 A3014 RMK A01 T02100185  RH  088%=      5-min Rain = 0
KFLS 101325Z 28003KT 21/19 A3014 RMK A01 T02140186  RH  087%=      5-min Rain = 0
KFLS 101330Z 28002KT 22/19 A3014 RMK A01 T02170186  RH  085%=      5-min Rain = 0
KFLS 101335Z 26003KT 22/19 A3014 RMK A01 T02230186  RH  082%=      5-min Rain = 0
KFLS 101340Z 28002KT 23/18 A3014 RMK A01 T02270184  RH  078%=      5-min Rain = 0
KFLS 101345Z 27003KT 23/19 A3014 RMK A01 T02300186  RH  078%=      5-min Rain = 0
KFLS 101350Z 26003KT 23/18 A3014 RMK A01 T02300184  RH  078%=      5-min Rain = 0
KFLS 101355Z 26003KT 23/18 A3014 RMK A01 T02290184  RH  078%=      5-min Rain = 0
KFLS 101400Z 26003KT 23/18 A3014 RMK A01 T02290184  RH  078%=      5-min Rain = 0
KFLS 101405Z 25003KT 23/19 A3014 RMK A01 T02290185  RH  078%=      5-min Rain = 0
KFLS 101410Z 25003KT 23/18 A3015 RMK A01 T02280181  RH  077%=      5-min Rain = 0
KFLS 101415Z 25003KT 23/18 A3015 RMK A01 T02290181  RH  077%=      5-min Rain = 0
KFLS 101420Z 24003KT 23/18 A3015 RMK A01 T02300183  RH  077%=      5-min Rain = 0
KFLS 101425Z 25003KT 23/18 A3015 RMK A01 T02320184  RH  076%=      5-min Rain = 0
KFLS 101430Z 24003KT 23/19 A3015 RMK A01 T02330185  RH  077%=      5-min Rain = 0
KFLS 101435Z 23005KT 23/18 A3015 RMK A01 T02330182  RH  075%=      5-min Rain = 0
KFLS 101440Z 23004KT 23/18 A3015 RMK A01 T02340183  RH  075%=      5-min Rain = 0
KFLS 101445Z 24003KT 24/18 A3015 RMK A01 T02360183  RH  074%=      5-min Rain = 0
KFLS 101450Z 22003KT 24/18 A3015 RMK A01 T02370182  RH  073%=      5-min Rain = 0
KFLS 101455Z 23003KT 24/18 A3015 RMK A01 T02380181  RH  072%=      5-min Rain = 0
KFLS 101500Z 26004KT 24/18 A3015 RMK A01 T02400181  RH  071%=      5-min Rain = 0
KFLS 101505Z 26005KT 24/18 A3015 RMK A01 T02400184  RH  073%=      5-min Rain = 0
KFLS 101510Z 25005KT 24/18 A3015 RMK A01 T02410183  RH  072%=      5-min Rain = 0
KFLS 101515Z 23007KT 24/19 A3015 RMK A01 T02380190  RH  077%=      5-min Rain = 0
KFLS 101520Z 23007KT 23/19 A3015 RMK A01 T02330193  RH  080%=      5-min Rain = 0.01
KFLS 101525Z 25006KT 23/19 A3015 RMK A01 T02340190  RH  078%=      5-min Rain = 0
KFLS 101530Z 25005KT 24/19 A3015 RMK A01 T02360187  RH  076%=      5-min Rain = 0
KFLS 101535Z 25004KT 24/18 A3015 RMK A01 T02380184  RH  073%=      5-min Rain = 0
KFLS 101540Z 25003KT 24/18 A3015 RMK A01 T02400182  RH  072%=      5-min Rain = 0
KFLS 101545Z 24004KT 24/18 A3015 RMK A01 T02430183  RH  071%=      5-min Rain = 0
KFLS 101550Z 24003KT 25/18 A3015 RMK A01 T02470182  RH  069%=      5-min Rain = 0
KFLS 101555Z 23002KT 25/18 A3015 RMK A01 T02500181  RH  067%=      5-min Rain = 0
KFLS 101600Z 23002KT 25/18 A3015 RMK A01 T02520178  RH  065%=      5-min Rain = 0
KFLS 101605Z 21002KT 25/18 A3015 RMK A01 T02540180  RH  065%=      5-min Rain = 0
KFLS 101610Z 19001KT 26/18 A3015 RMK A01 T02620181  RH  062%=      5-min Rain = 0
KFLS 101615Z 23002KT 26/18 A3015 RMK A01 T02640181  RH  062%=      5-min Rain = 0
KFLS 101620Z 22002KT 27/18 A3015 RMK A01 T02670183  RH  062%=      5-min Rain = 0
KFLS 101625Z 27002KT 27/18 A3015 RMK A01 T02720180  RH  059%=      5-min Rain = 0
KFLS 101630Z 31003KT 27/18 A3015 RMK A01 T02730179  RH  058%=      5-min Rain = 0
KFLS 101635Z 24003KT 27/18 A3015 RMK A01 T02710179  RH  059%=      5-min Rain = 0
KFLS 101640Z 21004KT 27/18 A3015 RMK A01 T02680182  RH  061%=      5-min Rain = 0
KFLS 101645Z 23005KT 27/18 A3015 RMK A01 T02680183  RH  061%=      5-min Rain = 0
KFLS 101650Z 23005KT 27/18 A3015 RMK A01 T02670181  RH  061%=      5-min Rain = 0
KFLS 101655Z 24004KT 27/18 A3015 RMK A01 T02660176  RH  059%=      5-min Rain = 0
KFLS 101700Z 24004KT 27/18 A3015 RMK A01 T02670178  RH  060%=      5-min Rain = 0
KFLS 101705Z 23004KT 27/18 A3015 RMK A01 T02690180  RH  060%=      5-min Rain = 0
KFLS 101710Z 22005KT 27/18 A3015 RMK A01 T02710178  RH  058%=      5-min Rain = 0
KFLS 101715Z 24006KT 27/18 A3015 RMK A01 T02740176  RH  057%=      5-min Rain = 0
KFLS 101720Z 23006KT 28/18 A3015 RMK A01 T02760176  RH  056%=      5-min Rain = 0
KFLS 101725Z 23006KT 28/17 A3014 RMK A01 T02750171  RH  054%=      5-min Rain = 0
KFLS 101730Z 22005KT 28/17 A3014 RMK A01 T02760167  RH  053%=      5-min Rain = 0
KFLS 101735Z 21006KT 28/17 A3014 RMK A01 T02790172  RH  053%=      5-min Rain = 0
KFLS 101740Z 23006KT 28/18 A3014 RMK A01 T02830178  RH  054%=      5-min Rain = 0
KFLS 101745Z 24006KT 29/18 A3014 RMK A01 T02850176  RH  053%=      5-min Rain = 0
KFLS 101750Z 21006KT 29/18 A3013 RMK A01 T02850176  RH  053%=      5-min Rain = 0
KFLS 101755Z 21007KT 29/17 A3013 RMK A01 T02900168  RH  049%=      5-min Rain = 0
KFLS 101800Z 22007KT 29/17 A3012 RMK A01 T02920167  RH  048%=      5-min Rain = 0
KFLS 101805Z 23006G11KT 30/17 A3012 RMK A01 T03020165  RH  045%=      5-min Rain = 0
KFLS 101810Z 21007G12KT 30/17 A3011 RMK A01 T03040169  RH  046%=      5-min Rain = 0
KFLS 101815Z 21007G13KT 30/17 A3011 RMK A01 T03030170  RH  046%=      5-min Rain = 0
KFLS 101820Z 23008KT 30/17 A3011 RMK A01 T02970165  RH  046%=      5-min Rain = 0
KFLS 101825Z 22007G12KT 29/17 A3011 RMK A01 T02900172  RH  050%=      5-min Rain = 0
KFLS 101830Z 22008KT 29/17 A3011 RMK A01 T02880169  RH  050%=      5-min Rain = 0
KFLS 101835Z 20007KT 29/17 A3011 RMK A01 T02870167  RH  049%=      5-min Rain = 0
KFLS 101840Z 21007KT 29/16 A3011 RMK A01 T02860160  RH  048%=      5-min Rain = 0
KFLS 101845Z 21007G12KT 29/16 A3011 RMK A01 T02900158  RH  046%=      5-min Rain = 0
KFLS 101850Z 23007KT 29/16 A3011 RMK A01 T02900158  RH  046%=      5-min Rain = 0
KFLS 101855Z 23007KT 29/16 A3011 RMK A01 T02900158  RH  046%=      5-min Rain = 0
KFLS 101900Z 21008KT 29/16 A3011 RMK A01 T02900158  RH  046%=      5-min Rain = 0
KFLS 101905Z 22008KT 29/16 A3011 RMK A01 T02890156  RH  046%=      5-min Rain = 0
KFLS 101910Z 25010KT 29/17 A301 RMK A01 T02910172  RH  050%=      5-min Rain = 0
KFLS 101915Z 25008KT 30/17 A301 RMK A01 T02990172  RH  048%=      5-min Rain = 0
KFLS 101920Z 24008KT 31/17 A3009 RMK A01 T03060169  RH  045%=      5-min Rain = 0
KFLS 101925Z 25010G15KT 29/17 A3009 RMK A01 T02920169  RH  049%=      5-min Rain = 0
KFLS 101930Z 24012KT 29/17 A3009 RMK A01 T02880171  RH  051%=      5-min Rain = 0
KFLS 101935Z 24013G18KT 29/17 A301 RMK A01 T02850169  RH  051%=      5-min Rain = 0
KFLS 101940Z 22012G18KT 27/18 A3011 RMK A01 T02700175  RH  057%=      5-min Rain = 0
KFLS 101945Z 21010G15KT 27/17 A3011 RMK A01 T02700172  RH  056%=      5-min Rain = 0
KFLS 101950Z 10011G18KT 26/16 A3013 RMK A01 T02550164  RH  059%=      5-min Rain = 0
KFLS 101955Z 09020G28KT 23/15 A3013 RMK A01 T02340151  RH  061%=      5-min Rain = 0
KFLS 102000Z 08016G24KT 23/15 A3014 RMK A01 T02320150  RH  061%=      5-min Rain = 0
KFLS 102005Z 05016G25KT 21/15 A3015 RMK A01 T02080151  RH  072%=      5-min Rain = 0.01
KFLS 102010Z 06022G27KT 18/15 A3014 RMK A01 T01790149  RH  084%=      5-min Rain = 0.12
KFLS 102015Z 07021G30KT 17/15 A3014 RMK A01 T01720152  RH  090%=      5-min Rain = 0.28
KFLS 102020Z 11016G24KT 17/15 A3014 RMK A01 T01730154  RH  090%=      5-min Rain = 0.32
KFLS 102025Z 10019G26KT 17/16 A3014 RMK A01 T01730158  RH  093%=      5-min Rain = 0.06
KFLS 102030Z 11019G26KT 18/16 A3014 RMK A01 T01800161  RH  091%=      5-min Rain = 0.01
KFLS 102035Z 12016KT 18/17 A3014 RMK A01 T01830167  RH  093%=      5-min Rain = 0
KFLS 102040Z 12015G21KT 18/17 A3013 RMK A01 T01830167  RH  093%=      5-min Rain = 0.01
KFLS 102045Z 13012KT 19/17 A3013 RMK A01 T01860165  RH  090%=      5-min Rain = 0
KFLS 102050Z 14011G17KT 19/16 A3013 RMK A01 T01880162  RH  087%=      5-min Rain = 0
KFLS 102055Z 14007KT 19/16 A3012 RMK A01 T01890160  RH  085%=      5-min Rain = 0
KFLS 102100Z 14007KT 19/16 A3011 RMK A01 T01930162  RH  084%=      5-min Rain = 0
KFLS 102105Z 16009KT 20/16 A301 RMK A01 T01980163  RH  082%=      5-min Rain = 0
KFLS 102110Z 17007KT 20/16 A3009 RMK A01 T02000162  RH  080%=      5-min Rain = 0
KFLS 102115Z 17005KT 20/16 A3009 RMK A01 T02040158  RH  076%=      5-min Rain = 0
KFLS 102120Z 16006KT 21/15 A3009 RMK A01 T02090150  RH  070%=      5-min Rain = 0
KFLS 102125Z 15006KT 21/15 A3009 RMK A01 T02120152  RH  070%=      5-min Rain = 0
KFLS 102130Z 16007KT 21/15 A3009 RMK A01 T02130151  RH  069%=      5-min Rain = 0
KFLS 102135Z 16007KT 21/15 A3008 RMK A01 T02140154  RH  071%=      5-min Rain = 0
KFLS 102140Z 16006KT 22/16 A3008 RMK A01 T02180156  RH  069%=      5-min Rain = 0
KFLS 102145Z 16007KT 23/15 A3008 RMK A01 T02250151  RH  064%=      5-min Rain = 0
KFLS 102150Z 17006KT 23/16 A3008 RMK A01 T02310155  RH  064%=      5-min Rain = 0
KFLS 102155Z 18005KT 24/15 A3007 RMK A01 T02380148  RH  058%=      5-min Rain = 0
KFLS 102200Z 20004KT 25/15 A3007 RMK A01 T02460149  RH  056%=      5-min Rain = 0
KFLS 102205Z 19003KT 26/15 A3007 RMK A01 T02590146  RH  051%=      5-min Rain = 0
KFLS 102210Z 25006KT 27/15 A3008 RMK A01 T02680150  RH  049%=      5-min Rain = 0
KFLS 102215Z 25004KT 27/15 A3007 RMK A01 T02650150  RH  050%=      5-min Rain = 0
KFLS 102220Z 26004KT 27/15 A3007 RMK A01 T02680147  RH  048%=      5-min Rain = 0
KFLS 102225Z 27005KT 27/15 A3008 RMK A01 T02670150  RH  050%=      5-min Rain = 0
KFLS 102230Z 27004KT 26/15 A3008 RMK A01 T02620148  RH  051%=      5-min Rain = 0
KFLS 102235Z 26003KT 26/15 A3009 RMK A01 T02600148  RH  051%=      5-min Rain = 0
KFLS 102240Z 26003KT 26/15 A3009 RMK A01 T02580151  RH  053%=      5-min Rain = 0
KFLS 102245Z 27004KT 26/15 A3008 RMK A01 T02560152  RH  054%=      5-min Rain = 0
KFLS 102250Z 28003KT 26/15 A3008 RMK A01 T02550146  RH  052%=      5-min Rain = 0
KFLS 102255Z 29001KT 26/14 A3008 RMK A01 T02560144  RH  051%=      5-min Rain = 0
KFLS 102300Z 26001KT 26/14 A3009 RMK A01 T02570143  RH  050%=      5-min Rain = 0
KFLS 102305Z 20001KT 26/14 A3009 RMK A01 T02580138  RH  049%=      5-min Rain = 0
KFLS 102310Z 20001KT 26/14 A3009 RMK A01 T02580135  RH  048%=      5-min Rain = 0
KFLS 102315Z 20001KT 26/14 A3009 RMK A01 T02570142  RH  050%=      5-min Rain = 0
KFLS 102320Z 17000KT 26/14 A3009 RMK A01 T02580137  RH  048%=      5-min Rain = 0
KFLS 102325Z 07000KT 26/15 A3009 RMK A01 T02590146  RH  051%=      5-min Rain = 0
KFLS 102330Z 32001KT 26/15 A3009 RMK A01 T02570147  RH  052%=      5-min Rain = 0
KFLS 102335Z 30002KT 26/15 A3008 RMK A01 T02560148  RH  052%=      5-min Rain = 0
KFLS 102340Z 28002KT 26/16 A3008 RMK A01 T02550158  RH  056%=      5-min Rain = 0
KFLS 102345Z 30003KT 25/16 A3008 RMK A01 T02520163  RH  059%=      5-min Rain = 0
KFLS 102350Z 29004KT 25/17 A3007 RMK A01 T02480165  RH  061%=      5-min Rain = 0
KFLS 102355Z 28004KT 25/16 A3007 RMK A01 T02450162  RH  061%=      5-min Rain = 0
KFLS 110000Z 29003KT 25/16 A3007 RMK A01 T02450164  RH  062%=      5-min Rain = 0
KFLS 110005Z 29003KT 25/16 A3007 RMK A01 T02460164  RH  062%=      5-min Rain = 0
KFLS 110010Z 30003KT 25/16 A3007 RMK A01 T02480159  RH  059%=      5-min Rain = 0
KFLS 110015Z 31003KT 25/15 A3007 RMK A01 T02520153  RH  055%=      5-min Rain = 0
KFLS 110020Z 32002KT 26/15 A3007 RMK A01 T02550146  RH  052%=      5-min Rain = 0
KFLS 110025Z 29002KT 26/15 A3007 RMK A01 T02580145  RH  051%=      5-min Rain = 0
KFLS 110030Z 27000KT 26/14 A3007 RMK A01 T02600141  RH  049%=      5-min Rain = 0
KFLS 110035Z 28001KT 26/14 A3007 RMK A01 T02610139  RH  048%=      5-min Rain = 0
KFLS 110040Z 29001KT 26/15 A3007 RMK A01 T02600145  RH  050%=      5-min Rain = 0
KFLS 110045Z 17001KT 26/15 A3007 RMK A01 T02600147  RH  051%=      5-min Rain = 0
KFLS 110050Z 16000KT 26/15 A3007 RMK A01 T02580145  RH  051%=      5-min Rain = 0
KFLS 110055Z 14002KT 26/15 A3007 RMK A01 T02560154  RH  054%=      5-min Rain = 0
KFLS 110100Z 13005KT 25/16 A3008 RMK A01 T02490161  RH  059%=      5-min Rain = 0
KFLS 110105Z 13005KT 25/16 A3008 RMK A01 T02460160  RH  060%=      5-min Rain = 0
KFLS 110110Z 13005KT 24/17 A3008 RMK A01 T02440167  RH  064%=      5-min Rain = 0
KFLS 110115Z 11005KT 24/18 A3008 RMK A01 T02390175  RH  069%=      5-min Rain = 0
KFLS 110120Z 11004KT 24/18 A3008 RMK A01 T02370178  RH  071%=      5-min Rain = 0
KFLS 110125Z 12005KT 24/18 A3008 RMK A01 T02350179  RH  072%=      5-min Rain = 0
KFLS 110130Z 13003KT 24/18 A3008 RMK A01 T02350176  RH  071%=      5-min Rain = 0
KFLS 110135Z 11004KT 23/18 A3009 RMK A01 T02330177  RH  072%=      5-min Rain = 0
KFLS 110140Z 11003KT 23/18 A3009 RMK A01 T02290177  RH  075%=      5-min Rain = 0
KFLS 110145Z 12003KT 23/18 A3009 RMK A01 T02290175  RH  073%=      5-min Rain = 0
KFLS 110150Z 13004KT 23/18 A3009 RMK A01 T02280177  RH  074%=      5-min Rain = 0
KFLS 110155Z 14005KT 23/18 A3009 RMK A01 T02270177  RH  075%=      5-min Rain = 0
KFLS 110200Z 15005KT 23/18 A3009 RMK A01 T02270177  RH  076%=      5-min Rain = 0
KFLS 110205Z 18004KT 23/18 A3009 RMK A01 T02270176  RH  075%=      5-min Rain = 0
KFLS 110210Z 18004KT 22/18 A301 RMK A01 T02240175  RH  075%=      5-min Rain = 0
KFLS 110215Z 20003KT 22/17 A301 RMK A01 T02220174  RH  076%=      5-min Rain = 0
KFLS 110220Z 19005KT 22/17 A301 RMK A01 T02210173  RH  076%=      5-min Rain = 0
KFLS 110225Z 19004KT 22/17 A301 RMK A01 T02210172  RH  076%=      5-min Rain = 0
KFLS 110230Z 19004KT 22/17 A301 RMK A01 T02200172  RH  076%=      5-min Rain = 0
KFLS 110235Z 21003KT 22/17 A3011 RMK A01 T02190171  RH  076%=      5-min Rain = 0
KFLS 110240Z 21004KT 22/17 A3011 RMK A01 T02200171  RH  076%=      5-min Rain = 0
KFLS 110245Z 19004KT 22/17 A3011 RMK A01 T02150172  RH  078%=      5-min Rain = 0
KFLS 110250Z 17005KT 21/17 A3012 RMK A01 T02120171  RH  079%=      5-min Rain = 0
KFLS 110255Z 16004KT 21/17 A3012 RMK A01 T02140170  RH  078%=      5-min Rain = 0
KFLS 110300Z 17004KT 22/17 A3012 RMK A01 T02150171  RH  078%=      5-min Rain = 0
KFLS 110305Z 18004KT 21/17 A3012 RMK A01 T02140171  RH  078%=      5-min Rain = 0
KFLS 110310Z 18004KT 21/17 A3012 RMK A01 T02120171  RH  079%=      5-min Rain = 0
KFLS 110315Z 18004KT 21/17 A3013 RMK A01 T02100170  RH  080%=      5-min Rain = 0
KFLS 110320Z 17004KT 21/17 A3013 RMK A01 T02090171  RH  081%=      5-min Rain = 0
KFLS 110325Z 16003KT 21/17 A3014 RMK A01 T02090170  RH  080%=      5-min Rain = 0
KFLS 110330Z 13002KT 21/17 A3014 RMK A01 T02090173  RH  082%=      5-min Rain = 0
KFLS 110335Z 11003KT 21/18 A3015 RMK A01 T02050176  RH  086%=      5-min Rain = 0
KFLS 110340Z 10003KT 20/18 A3015 RMK A01 T02030178  RH  088%=      5-min Rain = 0
KFLS 110345Z 09002KT 20/18 A3015 RMK A01 T02030180  RH  089%=      5-min Rain = 0
KFLS 110350Z 08002KT 20/18 A3015 RMK A01 T02040182  RH  089%=      5-min Rain = 0
KFLS 110355Z 02003KT 20/18 A3015 RMK A01 T02040182  RH  089%=      5-min Rain = 0
KFLS 110400Z 02004KT 21/18 A3015 RMK A01 T02050183  RH  090%=      5-min Rain = 0
KFLS 110405Z 01005KT 20/18 A3015 RMK A01 T02030183  RH  090%=      5-min Rain = 0
KFLS 110410Z 02005KT 20/18 A3015 RMK A01 T02020182  RH  090%=      5-min Rain = 0
KFLS 110415Z 01004KT 20/18 A3015 RMK A01 T02020182  RH  091%=      5-min Rain = 0
KFLS 110420Z 36006KT 20/18 A3015 RMK A01 T02020182  RH  090%=      5-min Rain = 0
KFLS 110425Z 36005KT 20/18 A3015 RMK A01 T02030181  RH  089%=      5-min Rain = 0
KFLS 110430Z 36005KT 20/18 A3015 RMK A01 T02040181  RH  089%=      5-min Rain = 0
KFLS 110435Z 34005KT 20/18 A3015 RMK A01 T02030181  RH  089%=      5-min Rain = 0
KFLS 110440Z 32004KT 20/18 A3015 RMK A01 T02010178  RH  089%=      5-min Rain = 0
KFLS 110445Z 33005KT 20/18 A3014 RMK A01 T01980177  RH  090%=      5-min Rain = 0
KFLS 110450Z 32004KT 20/18 A3014 RMK A01 T01970177  RH  090%=      5-min Rain = 0
KFLS 110455Z 32004KT 20/18 A3014 RMK A01 T01960176  RH  090%=      5-min Rain = 0

Page generated in 0.0099 seconds.